Covelo, California
Current Conditions -  °F | °C
As of 10:56 PM on Friday 24 Oct 2014 (Local Time) from KUKI Reporting Station
Broken Clouds Broken Clouds  
Wind Chill: 62°   Ceiling: 4700
Heat Index: 62°   Visibility: 10mi
Dew Point: 53°   Wind: 14mph
Humidity: 72%   Direction: 160°SSE
Pressure: 29.85"   Gusts: 22mph
Location:  39.79°N, 123.25°W
Report Text: KUKI 250556Z AUTO 16012G19KT 10SM BKN047 17/12 A2985 RMK AO2 SLP102 T01670117 10222 20167 58001
Loading
Personal Weather Stations






























Interactive Weather Map
Tropical Storm Tracking
New forecast layout! Learn more

10-Day Weather Forecast

Advertisements
Track Severe Weather on mobile